createdAt,value
2022-10-11T00:00:53.970Z,45.24
2022-10-11T00:02:55.642Z,45.99
2022-10-11T00:04:57.168Z,46.22
2022-10-11T00:06:58.755Z,46.31
2022-10-11T00:09:00.337Z,46.78
2022-10-11T00:11:06.204Z,47.77
2022-10-11T00:13:08.330Z,46.49
2022-10-11T00:15:13.478Z,47.32
2022-10-11T00:17:15.028Z,47.82
2022-10-11T00:19:16.673Z,47.23
2022-10-11T00:21:18.316Z,47.00
2022-10-11T00:23:19.882Z,46.56
2022-10-11T00:25:21.527Z,47.46
2022-10-11T00:27:23.068Z,46.32
2022-10-11T00:29:24.626Z,45.73
2022-10-11T00:31:26.185Z,46.12
2022-10-11T00:33:27.844Z,46.30
2022-10-11T00:35:29.410Z,46.38
2022-10-11T00:37:31.840Z,46.62
2022-10-11T00:39:33.439Z,46.16
2022-10-11T00:41:35.016Z,46.12
2022-10-11T00:43:36.565Z,46.18
2022-10-11T00:45:38.067Z,45.09
2022-10-11T00:47:40.972Z,45.28
2022-10-11T00:49:45.704Z,45.09
2022-10-11T00:51:55.322Z,46.39
2022-10-11T00:53:57.049Z,45.53
2022-10-11T00:56:08.794Z,45.85
2022-10-11T00:58:11.486Z,46.23
2022-10-11T01:00:14.734Z,45.82
2022-10-11T01:02:17.551Z,45.58
2022-10-11T01:04:19.148Z,45.07
2022-10-11T01:06:20.834Z,45.48
2022-10-11T01:08:23.337Z,45.90
2022-10-11T01:10:25.978Z,45.17
2022-10-11T01:12:30.150Z,45.25
2022-10-11T01:14:47.596Z,45.19
2022-10-11T01:17:02.216Z,45.57
2022-10-11T01:19:34.615Z,46.47
2022-10-11T01:21:52.002Z,45.21
2022-10-11T01:24:08.532Z,45.36
2022-10-11T01:26:31.801Z,46.52
2022-10-11T01:28:39.193Z,46.26
2022-10-11T01:30:42.209Z,46.36
2022-10-11T01:32:52.463Z,45.77
2022-10-11T01:35:15.987Z,44.97
2022-10-11T01:37:29.403Z,45.19
2022-10-11T01:39:36.749Z,46.20
2022-10-11T01:41:56.051Z,45.17
2022-10-11T01:44:02.387Z,45.71
2022-10-11T01:46:06.120Z,47.55
2022-10-11T01:48:11.494Z,46.19
2022-10-11T01:50:43.542Z,47.20
2022-10-11T01:52:45.898Z,47.62
2022-10-11T01:55:09.684Z,47.56
2022-10-11T01:57:20.484Z,47.13
2022-10-11T01:59:34.340Z,47.86
2022-10-11T02:01:42.370Z,47.26
2022-10-11T02:03:52.454Z,46.61
2022-10-11T02:06:09.658Z,45.60
2022-10-11T02:08:29.982Z,46.86
2022-10-11T02:10:54.431Z,46.96
2022-10-11T02:12:59.541Z,46.21
2022-10-11T02:15:03.458Z,46.60
2022-10-11T02:17:12.168Z,46.10
2022-10-11T02:19:18.709Z,45.85
2022-10-11T02:21:23.515Z,45.96
2022-10-11T02:23:39.167Z,46.28
2022-10-11T02:25:40.785Z,46.51
2022-10-11T02:27:46.733Z,45.95
2022-10-11T02:29:50.834Z,47.73
2022-10-11T02:31:54.290Z,47.19
2022-10-11T02:34:09.734Z,47.48
2022-10-11T02:36:19.730Z,46.57
2022-10-11T02:38:25.158Z,46.90
2022-10-11T02:40:32.398Z,45.93
2022-10-11T02:42:39.509Z,45.61
2022-10-11T02:44:53.413Z,46.94
2022-10-11T02:46:55.641Z,47.02
2022-10-11T02:48:59.687Z,45.45
2022-10-11T02:51:03.234Z,45.70
2022-10-11T02:53:04.951Z,46.74
2022-10-11T02:55:07.616Z,46.23
2022-10-11T02:57:09.302Z,45.76
2022-10-11T02:59:10.931Z,46.45
2022-10-11T03:01:13.728Z,45.74
2022-10-11T03:03:15.791Z,46.03
2022-10-11T03:05:17.571Z,46.24
2022-10-11T03:07:19.107Z,46.32
2022-10-11T03:09:20.666Z,46.64
2022-10-11T03:11:22.227Z,45.97
2022-10-11T03:13:24.138Z,45.65
2022-10-11T03:15:25.702Z,45.77
2022-10-11T03:17:37.642Z,44.80
2022-10-11T03:19:39.355Z,47.15
2022-10-11T03:21:40.952Z,47.02
2022-10-11T03:23:42.714Z,46.15
2022-10-11T03:25:45.626Z,46.59
2022-10-11T03:27:47.175Z,46.27
2022-10-11T03:29:48.675Z,46.40
2022-10-11T03:31:50.291Z,44.92
2022-10-11T03:33:51.831Z,45.21
2022-10-11T03:35:53.368Z,45.24
2022-10-11T03:37:54.970Z,46.17
2022-10-11T03:39:56.623Z,46.17
2022-10-11T03:41:58.197Z,45.64
2022-10-11T03:43:59.798Z,45.38
2022-10-11T03:46:01.485Z,46.58
2022-10-11T03:48:03.763Z,47.31
2022-10-11T03:50:07.293Z,47.03
2022-10-11T03:52:08.872Z,46.41
2022-10-11T03:54:10.416Z,46.72
2022-10-11T03:56:12.398Z,47.17
2022-10-11T03:58:14.156Z,48.33
2022-10-11T04:00:15.814Z,47.48
2022-10-11T04:02:17.619Z,47.82
2022-10-11T04:04:19.212Z,47.44
2022-10-11T04:06:20.918Z,46.54
2022-10-11T04:08:22.528Z,46.82
2022-10-11T04:10:24.074Z,47.85
2022-10-11T04:12:25.733Z,47.53
2022-10-11T04:14:27.400Z,49.72
2022-10-11T04:16:29.020Z,49.07
2022-10-11T04:18:30.564Z,47.52
2022-10-11T04:20:32.224Z,48.62
2022-10-11T04:22:34.100Z,48.08
2022-10-11T04:24:35.759Z,48.22
2022-10-11T04:26:37.641Z,47.66
2022-10-11T04:28:39.217Z,47.96
2022-10-11T04:30:40.796Z,48.77
2022-10-11T04:32:42.461Z,46.39
2022-10-11T04:34:44.009Z,46.45
2022-10-11T04:36:49.770Z,46.95
2022-10-11T04:38:51.694Z,46.93
2022-10-11T04:40:53.236Z,46.85
2022-10-11T04:42:54.922Z,47.80
2022-10-11T04:44:56.515Z,48.34
2022-10-11T04:46:58.142Z,47.10
2022-10-11T04:48:59.797Z,45.97
2022-10-11T04:51:01.449Z,48.28
2022-10-11T04:53:03.036Z,48.51
2022-10-11T04:55:05.123Z,47.54
2022-10-11T04:57:06.696Z,46.97
2022-10-11T04:59:08.280Z,48.72
2022-10-11T05:01:11.003Z,48.18
2022-10-11T05:03:12.551Z,47.48
2022-10-11T05:05:17.556Z,48.39
2022-10-11T05:07:19.174Z,47.46
2022-10-11T05:09:21.859Z,47.01
2022-10-11T05:11:23.435Z,46.94
2022-10-11T05:13:25.284Z,46.28
2022-10-11T05:15:26.851Z,46.28
2022-10-11T05:17:28.406Z,47.20
2022-10-11T05:19:29.926Z,46.40
2022-10-11T05:21:31.919Z,46.62
2022-10-11T05:23:35.905Z,46.34
2022-10-11T05:25:37.716Z,46.96
2022-10-11T05:27:39.271Z,48.69
2022-10-11T05:29:40.859Z,47.62
2022-10-11T05:31:43.287Z,47.73
2022-10-11T05:33:45.137Z,47.78
2022-10-11T05:35:46.818Z,47.07
2022-10-11T05:37:48.418Z,47.91
2022-10-11T05:39:50.066Z,46.77
2022-10-11T05:41:52.178Z,47.54
2022-10-11T05:43:53.703Z,47.70
2022-10-11T05:45:55.335Z,47.13
2022-10-11T05:47:56.892Z,46.23
2022-10-11T05:49:58.888Z,46.29
2022-10-11T05:52:00.576Z,45.93
2022-10-11T05:54:02.103Z,47.36
2022-10-11T05:56:04.534Z,47.45
2022-10-11T05:58:07.080Z,47.79
2022-10-11T06:00:09.349Z,47.21
2022-10-11T06:02:13.296Z,46.69
2022-10-11T06:04:16.562Z,46.05
2022-10-11T06:06:19.490Z,47.31
2022-10-11T06:08:21.005Z,48.00
2022-10-11T06:10:22.559Z,47.18
2022-10-11T06:12:24.093Z,47.57
2022-10-11T06:14:26.156Z,48.59
2022-10-11T06:16:28.287Z,47.10
2022-10-11T06:18:30.007Z,48.53
2022-10-11T06:20:31.567Z,47.59
2022-10-11T06:22:33.127Z,47.16
2022-10-11T06:24:34.652Z,47.29
2022-10-11T06:26:36.283Z,47.84
2022-10-11T06:28:38.143Z,47.16
2022-10-11T06:30:39.886Z,47.18
2022-10-11T06:32:41.451Z,47.89
2022-10-11T06:34:42.983Z,48.41
2022-10-11T06:36:44.505Z,46.07
2022-10-11T06:38:46.187Z,46.46
2022-10-11T06:40:47.696Z,46.02
2022-10-11T06:42:49.907Z,47.25
2022-10-11T06:44:51.721Z,46.27
2022-10-11T06:46:53.297Z,46.78
2022-10-11T06:48:56.516Z,46.08
2022-10-11T06:51:00.471Z,46.78
2022-10-11T06:53:02.268Z,45.90
2022-10-11T06:55:04.070Z,48.28
2022-10-11T06:57:05.599Z,47.39
2022-10-11T06:59:07.384Z,46.26
2022-10-11T07:01:12.946Z,47.79
2022-10-11T07:03:14.510Z,47.23
2022-10-11T07:05:17.221Z,45.86
2022-10-11T07:07:18.787Z,46.89
2022-10-11T07:09:20.324Z,45.81
2022-10-11T07:11:25.369Z,46.29
2022-10-11T07:13:26.924Z,45.94
2022-10-11T07:15:28.439Z,46.80
2022-10-11T07:17:30.074Z,45.95
2022-10-11T07:19:31.728Z,46.19
2022-10-11T07:21:34.564Z,45.93
2022-10-11T07:23:37.122Z,45.63
2022-10-11T07:25:38.835Z,45.64
2022-10-11T07:27:40.413Z,46.89
2022-10-11T07:29:42.003Z,46.87
2022-10-11T07:31:44.134Z,47.44
2022-10-11T07:33:46.144Z,48.08
2022-10-11T07:35:48.985Z,47.33
2022-10-11T07:37:50.611Z,47.67
2022-10-11T07:39:52.171Z,46.43
2022-10-11T07:41:53.787Z,46.02
2022-10-11T07:43:55.347Z,45.29
2022-10-11T07:46:00.526Z,44.51
2022-10-11T07:48:02.039Z,44.31
2022-10-11T07:50:04.238Z,44.89
2022-10-11T07:52:05.794Z,45.58
2022-10-11T07:54:07.693Z,45.45
2022-10-11T07:56:12.535Z,45.12
2022-10-11T07:58:14.138Z,44.77
2022-10-11T08:00:15.948Z,45.44
2022-10-11T08:02:17.537Z,46.03
2022-10-11T08:04:19.107Z,44.93
2022-10-11T08:06:23.795Z,45.25
2022-10-11T08:08:25.395Z,45.25
2022-10-11T08:10:27.258Z,45.21
2022-10-11T08:12:28.809Z,44.72
2022-10-11T08:14:30.796Z,44.35
2022-10-11T08:16:32.395Z,44.57
2022-10-11T08:18:33.950Z,44.43
2022-10-11T08:20:38.745Z,44.46
2022-10-11T08:22:40.444Z,44.53
2022-10-11T08:24:42.028Z,44.47
2022-10-11T08:26:43.628Z,43.99
2022-10-11T08:28:45.332Z,43.58
2022-10-11T08:30:48.488Z,43.82
2022-10-11T08:32:50.045Z,45.09
2022-10-11T08:34:51.698Z,45.43
2022-10-11T08:36:53.301Z,44.44
2022-10-11T08:38:54.908Z,45.39
2022-10-11T08:40:59.500Z,44.42
2022-10-11T08:43:05.425Z,45.17
2022-10-11T08:45:16.887Z,43.93
2022-10-11T08:47:33.698Z,46.46
2022-10-11T08:49:36.074Z,45.43
2022-10-11T08:51:45.372Z,44.63
2022-10-11T08:54:17.312Z,45.40
2022-10-11T08:56:20.472Z,46.76
2022-10-11T08:58:30.094Z,45.75
2022-10-11T09:00:35.454Z,44.77
2022-10-11T09:03:07.374Z,44.44
2022-10-11T09:05:15.448Z,44.89
2022-10-11T09:07:38.568Z,46.01
2022-10-11T09:09:58.947Z,44.67
2022-10-11T09:12:32.938Z,44.96
2022-10-11T09:14:44.663Z,45.70
2022-10-11T09:17:27.885Z,45.51
2022-10-11T09:19:32.401Z,46.37
2022-10-11T09:21:36.998Z,45.59
2022-10-11T09:23:44.571Z,44.46
2022-10-11T09:25:54.592Z,44.22
2022-10-11T09:28:18.022Z,45.08
2022-10-11T09:30:20.179Z,46.13
2022-10-11T09:32:23.022Z,44.18
2022-10-11T09:34:27.342Z,44.66
2022-10-11T09:36:34.082Z,44.09
2022-10-11T09:38:43.867Z,44.50
2022-10-11T09:41:09.871Z,43.74
2022-10-11T09:43:12.183Z,45.22
2022-10-11T09:45:20.844Z,44.72
2022-10-11T09:47:25.879Z,45.38
2022-10-11T09:50:26.454Z,44.91
2022-10-11T09:52:28.088Z,44.13
2022-10-11T09:54:41.429Z,43.63
2022-10-11T09:56:45.413Z,44.33
2022-10-11T09:58:47.157Z,44.35
2022-10-11T10:01:07.407Z,44.50
2022-10-11T10:03:27.874Z,44.74
2022-10-11T10:05:35.579Z,44.86
2022-10-11T10:07:40.917Z,44.55
2022-10-11T10:09:42.485Z,45.20
2022-10-11T10:11:44.115Z,43.98
2022-10-11T10:13:51.648Z,43.42
2022-10-11T10:15:56.158Z,43.93
2022-10-11T10:17:58.331Z,43.31
2022-10-11T10:20:00.701Z,43.45
2022-10-11T10:22:02.354Z,44.69
2022-10-11T10:24:19.808Z,44.34
2022-10-11T10:26:24.304Z,44.59
2022-10-11T10:28:27.473Z,44.72
2022-10-11T10:30:35.205Z,44.67
2022-10-11T10:32:59.911Z,44.78
2022-10-11T10:35:29.319Z,45.30
2022-10-11T10:38:14.160Z,43.28
2022-10-11T10:40:25.398Z,44.71
2022-10-11T10:42:27.970Z,43.72
2022-10-11T10:44:29.580Z,44.23
2022-10-11T10:46:46.208Z,43.81
2022-10-11T10:52:06.023Z,44.29
2022-10-11T10:54:34.683Z,43.77
2022-10-11T10:56:55.739Z,43.74
2022-10-11T10:59:35.246Z,43.68
2022-10-11T11:03:34.224Z,49.63
2022-10-11T11:05:56.033Z,48.57
2022-10-11T11:08:39.422Z,48.23
2022-10-11T11:10:59.303Z,47.83
2022-10-11T11:13:16.087Z,45.41
2022-10-11T11:15:43.423Z,46.14
2022-10-11T11:18:15.556Z,46.65
2022-10-11T11:20:21.560Z,45.56
2022-10-11T11:22:23.134Z,45.31
2022-10-11T11:24:39.582Z,47.34
2022-10-11T11:27:18.941Z,46.73
2022-10-11T11:29:44.767Z,46.68
2022-10-11T11:32:15.690Z,46.38
2022-10-11T11:34:25.594Z,46.76
2022-10-11T11:36:33.179Z,46.96
2022-10-11T11:38:54.309Z,45.60
2022-10-11T11:40:59.253Z,46.00
2022-10-11T11:43:15.547Z,46.58
2022-10-11T11:45:23.648Z,45.38
2022-10-11T11:47:34.118Z,46.86
2022-10-11T11:51:50.591Z,45.95
2022-10-11T11:54:10.756Z,46.49
2022-10-11T11:56:18.054Z,47.56
2022-10-11T11:58:37.882Z,45.94
2022-10-11T12:00:55.342Z,46.71
2022-10-11T12:03:28.095Z,46.26
2022-10-11T12:05:33.472Z,46.88
2022-10-11T12:07:58.680Z,45.65
2022-10-11T12:10:37.311Z,46.59
2022-10-11T12:12:39.346Z,47.18
2022-10-11T12:14:41.878Z,45.63
2022-10-11T12:17:10.402Z,46.04
2022-10-11T12:19:14.368Z,46.15
2022-10-11T12:21:20.728Z,46.34
2022-10-11T12:23:31.263Z,46.83
2022-10-11T12:25:39.898Z,47.42
2022-10-11T12:27:50.604Z,46.88
2022-10-11T12:29:52.219Z,46.74
2022-10-11T12:32:00.130Z,46.77
2022-10-11T12:34:01.623Z,46.32
2022-10-11T12:36:38.511Z,45.67
2022-10-11T12:38:41.267Z,46.69
2022-10-11T12:40:47.100Z,46.64
2022-10-11T12:43:16.732Z,46.07
2022-10-11T12:45:18.279Z,46.54
2022-10-11T12:47:40.968Z,47.11
2022-10-11T12:50:06.833Z,46.31
2022-10-11T12:52:17.864Z,47.05
2022-10-11T12:55:00.130Z,46.93
2022-10-11T12:57:20.304Z,46.53
2022-10-11T12:59:23.725Z,46.79
2022-10-11T13:01:36.194Z,45.98
2022-10-11T13:03:45.013Z,46.78
2022-10-11T13:05:52.387Z,46.36
2022-10-11T13:08:02.711Z,46.35
2022-10-11T13:10:05.789Z,46.01
2022-10-11T13:12:13.675Z,45.52
2022-10-11T13:14:22.928Z,47.51
2022-10-11T13:16:41.754Z,47.22
2022-10-11T13:18:45.178Z,46.28
2022-10-11T13:20:47.243Z,46.60
2022-10-11T13:22:53.129Z,46.68
2022-10-11T13:24:58.029Z,45.79
2022-10-11T13:26:59.719Z,47.69
2022-10-11T13:29:01.592Z,46.82
2022-10-11T13:31:04.402Z,46.26
2022-10-11T13:33:11.758Z,46.76
2022-10-11T13:35:34.359Z,47.69
2022-10-11T13:37:44.635Z,46.54
2022-10-11T13:39:47.280Z,45.70
2022-10-11T13:41:48.924Z,46.16
2022-10-11T13:43:51.420Z,46.75
2022-10-11T13:45:54.943Z,46.45
2022-10-11T13:47:56.921Z,46.58
2022-10-11T13:50:10.968Z,46.10
2022-10-11T13:52:18.514Z,46.18
2022-10-11T13:54:20.174Z,47.39
2022-10-11T13:56:21.769Z,46.45
2022-10-11T13:58:26.123Z,46.18
2022-10-11T14:00:37.338Z,46.01
2022-10-11T14:02:39.342Z,45.92
2022-10-11T14:04:41.633Z,45.71
2022-10-11T14:06:54.348Z,45.70
2022-10-11T14:08:58.550Z,46.51
2022-10-11T14:11:06.091Z,46.19
2022-10-11T14:13:34.195Z,46.73
2022-10-11T14:15:38.156Z,46.60
2022-10-11T14:17:45.208Z,47.08
2022-10-11T14:20:07.368Z,47.33
2022-10-11T14:22:16.932Z,46.72
2022-10-11T14:24:19.237Z,45.87
2022-10-11T14:26:22.740Z,46.01
2022-10-11T14:28:24.337Z,45.47
2022-10-11T14:30:27.660Z,45.23
2022-10-11T14:32:33.265Z,44.55
2022-10-11T14:34:36.555Z,45.51
2022-10-11T14:36:38.063Z,46.29
2022-10-11T14:38:39.665Z,46.29
2022-10-11T14:40:41.259Z,45.72
2022-10-11T14:42:42.791Z,45.48
2022-10-11T14:44:44.688Z,45.54
2022-10-11T14:46:48.072Z,46.25
2022-10-11T14:48:55.433Z,45.89
2022-10-11T14:51:02.904Z,45.88
2022-10-11T14:53:05.983Z,46.21
2022-10-11T14:55:07.758Z,44.63
2022-10-11T14:57:11.777Z,44.31
2022-10-11T14:59:16.373Z,44.90
2022-10-11T15:01:17.985Z,44.50
2022-10-11T15:03:19.606Z,45.44
2022-10-11T15:05:22.977Z,43.96
2022-10-11T15:07:24.485Z,44.93
2022-10-11T15:09:26.124Z,45.23
2022-10-11T15:11:27.699Z,45.12
2022-10-11T15:13:29.234Z,44.65
2022-10-11T15:15:35.208Z,45.42
2022-10-11T15:17:37.093Z,45.79
2022-10-11T15:19:38.618Z,45.29
2022-10-11T15:21:40.173Z,44.98
2022-10-11T15:23:41.832Z,45.32
2022-10-11T15:25:43.368Z,44.64
2022-10-11T15:27:45.006Z,44.71
2022-10-11T15:29:47.127Z,44.90
2022-10-11T15:31:49.491Z,44.22
2022-10-11T15:33:51.227Z,45.08
2022-10-11T15:35:53.008Z,44.24
2022-10-11T15:37:58.442Z,45.55
2022-10-11T15:40:00.065Z,44.68
2022-10-11T15:42:01.689Z,44.86
2022-10-11T15:44:03.211Z,44.21
2022-10-11T15:46:05.416Z,46.15
2022-10-11T15:48:07.464Z,45.13
2022-10-11T15:50:23.394Z,44.81
2022-10-11T15:52:24.968Z,44.53
2022-10-11T15:54:26.545Z,43.84
2022-10-11T15:56:32.927Z,44.68
2022-10-11T15:58:38.617Z,44.75
2022-10-11T16:00:40.427Z,43.62
2022-10-11T16:02:41.950Z,43.50
2022-10-11T16:04:44.571Z,42.90
2022-10-11T16:06:46.188Z,42.86
2022-10-11T16:08:48.086Z,43.88
2022-10-11T16:10:50.613Z,44.22
2022-10-11T16:12:52.151Z,43.21
2022-10-11T16:14:53.694Z,42.38
2022-10-11T16:16:55.309Z,43.33
2022-10-11T16:18:56.823Z,43.00
2022-10-11T16:20:58.490Z,42.46
2022-10-11T16:23:00.529Z,42.67
2022-10-11T16:25:04.007Z,42.36
2022-10-11T16:27:05.779Z,42.95
2022-10-11T16:29:07.324Z,42.60
2022-10-11T16:31:11.244Z,42.92
2022-10-11T16:33:12.929Z,41.76
2022-10-11T16:35:16.372Z,42.14
2022-10-11T16:37:18.164Z,42.82
2022-10-11T16:39:20.061Z,42.14
2022-10-11T16:41:21.642Z,42.22
2022-10-11T16:43:23.165Z,43.00
2022-10-11T16:45:24.701Z,42.49
2022-10-11T16:47:26.403Z,43.56
2022-10-11T16:49:28.827Z,42.59
2022-10-11T16:51:30.464Z,42.06
2022-10-11T16:53:34.347Z,42.63
2022-10-11T16:55:39.532Z,42.91
2022-10-11T16:57:41.051Z,42.28
2022-10-11T16:59:42.605Z,42.08
2022-10-11T17:01:45.225Z,42.41
2022-10-11T17:03:46.862Z,42.00
2022-10-11T17:05:48.437Z,41.20
2022-10-11T17:07:49.978Z,41.35
2022-10-11T17:09:51.516Z,42.51
2022-10-11T17:11:53.142Z,41.38
2022-10-11T17:13:54.679Z,41.59
2022-10-11T17:15:56.204Z,41.01
2022-10-11T17:17:58.104Z,41.68
2022-10-11T17:19:59.828Z,41.06
2022-10-11T17:22:01.348Z,41.20
2022-10-11T17:24:03.674Z,42.04
2022-10-11T17:26:10.990Z,42.29
2022-10-11T17:28:13.216Z,40.91
2022-10-11T17:30:15.260Z,42.32
2022-10-11T17:32:16.846Z,41.40
2022-10-11T17:34:18.381Z,42.33
2022-10-11T17:36:27.923Z,42.25
2022-10-11T17:38:29.677Z,42.62
2022-10-11T17:40:31.314Z,42.24
2022-10-11T17:42:32.975Z,41.99
2022-10-11T17:44:35.792Z,42.12
2022-10-11T17:46:38.113Z,41.49
2022-10-11T17:48:39.930Z,42.20
2022-10-11T17:50:44.848Z,41.80
2022-10-11T17:52:48.995Z,41.68
2022-10-11T17:54:50.617Z,42.23
2022-10-11T17:56:52.378Z,42.46
2022-10-11T17:58:56.464Z,42.06
2022-10-11T18:01:02.039Z,41.39
2022-10-11T18:03:04.093Z,42.32
2022-10-11T18:05:07.256Z,41.69
2022-10-11T18:07:08.861Z,42.15
2022-10-11T18:09:11.804Z,41.27
2022-10-11T18:11:17.194Z,41.57
2022-10-11T18:13:19.001Z,42.13
2022-10-11T18:15:20.614Z,42.36
2022-10-11T18:17:24.684Z,43.00
2022-10-11T18:19:26.374Z,41.89
2022-10-11T18:21:34.023Z,42.21
2022-10-11T18:23:38.267Z,42.10
2022-10-11T18:25:39.897Z,41.39
2022-10-11T18:27:41.578Z,41.33
2022-10-11T18:29:43.584Z,41.21
2022-10-11T18:31:45.284Z,41.16
2022-10-11T18:33:47.338Z,41.58
2022-10-11T18:35:48.953Z,41.89
2022-10-11T18:37:51.057Z,42.09
2022-10-11T18:39:52.715Z,41.23
2022-10-11T18:41:54.411Z,42.32
2022-10-11T18:43:57.541Z,41.56
2022-10-11T18:46:07.089Z,41.93
2022-10-11T18:48:09.103Z,41.75
2022-10-11T18:50:10.751Z,41.74
2022-10-11T18:52:12.537Z,42.79
2022-10-11T18:54:18.326Z,42.41
2022-10-11T18:56:24.728Z,41.53
2022-10-11T18:58:26.728Z,42.48
2022-10-11T19:00:40.635Z,41.74
2022-10-11T19:02:42.946Z,42.49
2022-10-11T19:04:44.675Z,41.70
2022-10-11T19:06:51.620Z,41.89
2022-10-11T19:09:24.507Z,41.91
2022-10-11T19:11:26.422Z,41.19
2022-10-11T19:13:27.931Z,42.48
2022-10-11T19:15:29.517Z,41.79
2022-10-11T19:17:31.118Z,41.88
2022-10-11T19:19:33.216Z,42.45
2022-10-11T19:21:35.176Z,41.86
2022-10-11T19:23:39.613Z,41.96
2022-10-11T19:25:41.157Z,41.99
2022-10-11T19:27:42.662Z,42.77
2022-10-11T19:29:44.326Z,42.67
2022-10-11T19:31:52.030Z,43.38
2022-10-11T19:33:54.064Z,43.57
2022-10-11T19:35:56.658Z,43.60
2022-10-11T19:37:58.170Z,44.57
2022-10-11T19:39:59.734Z,44.16
2022-10-11T19:42:01.678Z,43.41
2022-10-11T19:44:03.416Z,43.61
2022-10-11T19:46:08.342Z,43.11
2022-10-11T19:48:11.492Z,43.44
2022-10-11T19:50:13.015Z,43.35
2022-10-11T19:52:14.547Z,43.44
2022-10-11T19:54:16.493Z,43.48
2022-10-11T19:56:18.768Z,44.08
2022-10-11T19:58:20.333Z,44.36
2022-10-11T20:00:22.015Z,44.15
2022-10-11T20:02:23.552Z,43.62
2022-10-11T20:04:51.193Z,42.67
2022-10-11T20:06:47.185Z,44.04
2022-10-11T20:09:10.350Z,43.26
2022-10-11T20:11:13.698Z,43.14
2022-10-11T20:13:15.240Z,43.03
2022-10-11T20:15:16.777Z,43.63
2022-10-11T20:17:18.346Z,43.66
2022-10-11T20:19:21.494Z,44.26
2022-10-11T20:21:27.750Z,44.57
2022-10-11T20:23:30.350Z,43.55
2022-10-11T20:25:31.981Z,44.18
2022-10-11T20:27:33.891Z,43.57
2022-10-11T20:29:35.679Z,44.02
2022-10-11T20:31:41.802Z,44.50
2022-10-11T20:33:43.395Z,43.56
2022-10-11T20:35:45.006Z,44.21
2022-10-11T20:37:46.552Z,44.38
2022-10-11T20:39:48.073Z,43.87
2022-10-11T20:41:49.632Z,44.23
2022-10-11T20:43:54.607Z,43.79
2022-10-11T20:46:00.063Z,43.54
2022-10-11T20:48:01.573Z,43.63
2022-10-11T20:50:03.511Z,44.08
2022-10-11T20:52:05.074Z,44.27
2022-10-11T20:54:06.629Z,43.98
2022-10-11T20:56:10.595Z,43.95
2022-10-11T20:58:12.214Z,43.68
2022-10-11T21:00:14.247Z,44.98
2022-10-11T21:02:18.983Z,44.07
2022-10-11T21:04:20.855Z,43.46
2022-10-11T21:06:22.486Z,43.13
2022-10-11T21:08:24.050Z,44.04
2022-10-11T21:10:25.752Z,44.09
2022-10-11T21:12:27.252Z,44.01
2022-10-11T21:14:28.917Z,44.24
2022-10-11T21:16:30.471Z,43.66
2022-10-11T21:18:32.002Z,43.30
2022-10-11T21:20:38.252Z,44.60
2022-10-11T21:22:39.791Z,45.03
2022-10-11T21:24:41.323Z,44.44
2022-10-11T21:26:42.911Z,45.32
2022-10-11T21:28:45.614Z,43.94
2022-10-11T21:30:47.226Z,43.93
2022-10-11T21:32:48.876Z,44.93
2022-10-11T21:34:50.445Z,45.19
2022-10-11T21:36:52.058Z,43.99
2022-10-11T21:38:54.954Z,44.38
2022-10-11T21:40:56.508Z,44.40
2022-10-11T21:42:58.048Z,44.30
2022-10-11T21:44:59.648Z,44.33
2022-10-11T21:47:07.112Z,44.30
2022-10-11T21:49:09.448Z,44.72
2022-10-11T21:51:34.555Z,44.71
2022-10-11T21:53:36.073Z,44.91
2022-10-11T21:55:37.588Z,44.89
2022-10-11T21:57:41.850Z,45.19
2022-10-11T21:59:43.387Z,44.44
2022-10-11T22:01:44.973Z,44.23
2022-10-11T22:03:46.779Z,45.47
2022-10-11T22:05:48.649Z,44.30
2022-10-11T22:07:50.166Z,44.30
2022-10-11T22:09:51.727Z,44.60
2022-10-11T22:11:53.500Z,44.47
2022-10-11T22:13:55.076Z,44.67
2022-10-11T22:15:56.849Z,44.37
2022-10-11T22:17:58.383Z,44.37
2022-10-11T22:19:59.928Z,44.09
2022-10-11T22:22:01.676Z,44.54
2022-10-11T22:24:03.449Z,44.57
2022-10-11T22:26:06.607Z,44.42
2022-10-11T22:28:08.710Z,44.92
2022-10-11T22:30:10.635Z,44.37
2022-10-11T22:32:12.174Z,44.84
2022-10-11T22:34:13.790Z,45.00
2022-10-11T22:36:19.300Z,45.39
2022-10-11T22:38:20.956Z,44.31
2022-10-11T22:40:22.521Z,45.00
2022-10-11T22:42:27.522Z,45.46
2022-10-11T22:44:29.411Z,45.74
2022-10-11T22:46:30.972Z,45.84
2022-10-11T22:48:32.571Z,45.67
2022-10-11T22:50:34.127Z,45.30
2022-10-11T22:52:35.685Z,45.55
2022-10-11T22:54:37.206Z,45.06
2022-10-11T22:56:38.873Z,45.53
2022-10-11T22:58:40.432Z,45.58
2022-10-11T23:00:42.112Z,45.32
2022-10-11T23:02:43.819Z,45.55
2022-10-11T23:04:45.344Z,45.36
2022-10-11T23:06:47.082Z,46.96
2022-10-11T23:08:48.681Z,45.41
2022-10-11T23:10:50.307Z,44.87
2022-10-11T23:12:51.853Z,46.04
2022-10-11T23:14:53.525Z,46.24
2022-10-11T23:16:55.049Z,45.80
2022-10-11T23:18:56.597Z,45.56
2022-10-11T23:21:00.496Z,45.21
2022-10-11T23:23:02.024Z,45.06
2022-10-11T23:25:04.396Z,45.57
2022-10-11T23:27:06.426Z,45.06
2022-10-11T23:29:08.042Z,44.75
2022-10-11T23:31:18.367Z,44.73
2022-10-11T23:33:19.952Z,45.35
2022-10-11T23:35:21.617Z,45.23
2022-10-11T23:37:23.257Z,44.47
2022-10-11T23:39:24.792Z,45.04
2022-10-11T23:41:28.913Z,44.75
2022-10-11T23:43:30.449Z,45.76
2022-10-11T23:45:31.958Z,45.58
2022-10-11T23:47:33.524Z,45.82
2022-10-11T23:49:35.043Z,45.07
2022-10-11T23:51:36.682Z,46.05
2022-10-11T23:53:38.283Z,45.37
2022-10-11T23:55:40.601Z,45.69
2022-10-11T23:57:42.132Z,44.94
2022-10-11T23:59:43.682Z,45.93
